Latest Weather Observations for Rutherglen RS

IDV60801

Issued at 9:35 pm EST Thursday 18 September 2014 (issued every 30 minutes, with the page automatically refreshed every 10 minutes)

About weather observations | Map of weather stations | Latest weather observations for VIC | Other Formats
Station Details ID: 082039 Name: RUTHERGLEN RESEARCH Lat: -36.10 Lon: 146.51 Height: 175.0 m
Data from the previous 72 hours. | See also: Recent months at Rutherglen RS
Date/Time
EST
Temp
°C
App
Temp
°C
Dew
Point
Rel
Hum
%
Delta-T
°C
Wind Press
QNH
hPa
Press
MSL
hPa
Rain
since 9 am
mm
Dir
 
Spd
km/h
Gust
km/h
Spd
kts
Gust
kts
18/09:30pm 4.1 0.9 3.2 94 0.4 SSW 9 13 5 7 - - 0.0
18/09:00pm 4.8 1.5 2.7 86 0.9 SSW 9 13 5 7 - - 0.0
18/08:30pm 5.8 2.3 3.3 84 1.1 SSW 11 15 6 8 - - 0.0
18/08:00pm 5.9 3.2 3.6 85 1.0 SSW 7 11 4 6 - - 0.0
18/07:30pm 6.5 3.5 4.2 85 1.0 SW 9 13 5 7 - - 0.0
18/07:00pm 6.6 3.3 4.3 85 1.0 SW 11 15 6 8 - - 0.0
18/06:30pm 7.6 4.7 4.4 80 1.4 SW 9 13 5 7 - - 0.0
18/06:00pm 9.2 5.7 5.4 77 1.7 SW 13 19 7 10 - - 0.0
18/05:30pm 10.0 6.6 5.8 75 1.9 SW 13 17 7 9 - - 0.0
18/05:00pm 11.6 7.1 5.9 68 2.7 SW 19 30 10 16 - - 0.0
18/04:30pm 12.9 8.3 6.3 64 3.2 WSW 20 32 11 17 - - 0.0
18/04:00pm 13.2 7.8 6.5 64 3.2 WSW 24 33 13 18 - - 0.0
18/03:30pm 13.6 8.1 6.0 60 3.6 SW 24 30 13 16 - - 0.0
18/03:00pm 12.2 7.6 5.8 65 3.0 WSW 19 26 10 14 - - 0.0
18/02:30pm 12.4 8.3 6.2 66 3.0 WSW 17 24 9 13 - - 0.0
18/02:00pm 12.7 8.1 6.7 67 2.9 WSW 20 30 11 16 - - 0.0
18/01:30pm 12.5 8.3 5.9 64 3.1 WSW 17 22 9 12 - - 0.0
18/01:00pm 12.6 9.2 6.0 64 3.1 WSW 13 17 7 9 - - 0.0
18/12:30pm 12.6 8.4 5.5 62 3.3 SW 17 22 9 12 - - 0.0
18/12:00pm 12.6 8.9 4.6 58 3.7 SW 13 22 7 12 - - 0.0
18/11:30am 11.6 7.4 5.9 68 2.7 SW 17 26 9 14 - - 0.0
18/11:00am 11.7 8.1 6.6 71 2.4 WSW 15 22 8 12 - - 0.0
18/10:30am 11.7 7.8 7.2 74 2.2 WSW 17 26 9 14 - - 0.0
18/10:00am 10.5 6.1 6.5 76 1.9 WSW 19 26 10 14 - - 0.0
18/09:30am 9.9 5.9 6.8 81 1.5 SW 17 22 9 12 - - 0.0
18/09:00am 8.7 5.1 6.7 87 0.9 SW 15 20 8 11 - - 0.2
18/08:30am 7.2 3.5 6.5 95 0.3 SW 15 19 8 10 - - 0.2
18/08:00am 5.7 2.6 5.6 99 0.0 WSW 11 15 6 8 - - 0.2
18/07:30am 4.2 1.2 4.2 100 0.0 W 9 13 5 7 - - 0.2
18/07:00am 1.0 -2.0 1.0 100 0.0 W 6 7 3 4 - - 0.2
18/06:30am -0.4 -3.2 -0.4 100 0.0 NW 4 7 2 4 - - 0.2
18/06:00am 0.8 -1.1 0.8 100 0.0 W 0 0 0 0 - - 0.2
18/05:30am 0.8 -2.2 0.8 100 0.0 W 6 7 3 4 - - 0.2
18/05:00am 1.0 -2.0 0.9 99 0.0 W 6 7 3 4 - - 0.2
18/04:30am 2.5 -1.6 2.4 99 0.0 W 13 17 7 9 - - 0.2
18/04:00am 2.1 -0.3 2.1 100 0.0 WSW 4 9 2 5 - - 0.2
18/03:30am 0.5 -1.4 0.4 99 0.0 ESE 0 4 0 2 - - 0.2
18/03:00am 3.0 1.1 2.6 97 0.2 WSW 2 6 1 3 - - 0.2
18/02:30am 3.8 0.2 2.9 94 0.4 W 11 15 6 8 - - 0.2
18/02:00am 4.8 0.5 3.1 89 0.7 WSW 15 20 8 11 - - 0.2
18/01:30am 5.4 0.3 3.3 86 0.9 WSW 19 24 10 13 - - 0.2
18/01:00am 5.6 0.9 3.1 84 1.0 WSW 17 24 9 13 - - 0.2
18/12:30am 6.1 0.9 3.3 82 1.2 WSW 20 26 11 14 - - 0.2
18/12:00am 5.9 0.9 3.4 84 1.1 WSW 19 26 10 14 - - 0.2
 
Date/Time
EST
Temp
°C
App
Temp
°C
Dew
Point
Rel
Hum
%
Delta-T
°C
Wind Press
QNH
hPa
Press
MSL
hPa
Rain
since 9 am
mm
Dir
 
Spd
km/h
Gust
km/h
Spd
kts
Gust
kts
17/11:30pm 6.7 1.7 3.5 80 1.4 SW 19 24 10 13 - - 0.2
17/11:00pm 6.9 1.8 3.3 78 1.5 SW 19 26 10 14 - - 0.2
17/10:30pm 7.0 2.4 3.6 79 1.5 SW 17 24 9 13 - - 0.2
17/10:00pm 7.1 3.3 3.7 79 1.5 WSW 13 19 7 10 - - 0.2
17/09:30pm 9.0 4.9 4.4 73 2.0 SSW 15 24 8 13 - - 0.2
17/09:00pm 9.6 5.6 4.8 72 2.2 SW 15 22 8 12 - - 0.2
17/08:30pm 9.5 5.3 5.5 76 1.8 SSW 17 22 9 12 - - 0.2
17/08:00pm 9.7 4.8 3.9 67 2.6 SW 19 28 10 15 - - 0.2
17/07:30pm 8.8 4.9 3.2 68 2.4 WSW 13 20 7 11 - - 0.2
17/07:00pm 10.1 4.9 3.6 64 2.9 WSW 20 24 11 13 - - 0.2
17/06:30pm 10.5 5.6 4.0 64 2.9 WSW 19 26 10 14 - - 0.2
17/06:00pm 11.0 7.1 5.3 68 2.6 WSW 15 22 8 12 - - 0.2
17/05:30pm 13.0 8.8 5.9 62 3.4 WSW 17 20 9 11 - - 0.2
17/05:00pm 13.6 8.5 6.0 60 3.6 W 22 30 12 16 - - 0.2
17/04:30pm 13.3 8.2 5.9 61 3.5 WSW 22 32 12 17 - - 0.2
17/04:00pm 14.2 8.0 6.3 59 3.8 W 28 37 15 20 - - 0.2
17/03:30pm 14.3 8.0 5.7 56 4.1 WSW 28 37 15 20 - - 0.2
17/03:00pm 14.9 9.2 8.4 65 3.3 W 28 41 15 22 - - 0.2
17/02:30pm 14.2 10.4 9.2 72 2.6 WSW 19 32 10 17 - - 0.2
17/02:00pm 10.8 6.7 8.7 87 1.0 W 20 24 11 13 - - 0.0
17/01:54pm 11.8 3.2 8.3 79 1.7 W 43 50 23 27 - - 0.0
17/01:30pm 13.5 8.7 7.5 67 3.0 SW 22 32 12 17 - - 0.0
17/01:00pm 12.5 7.1 6.5 67 2.9 WSW 24 37 13 20 - - 0.0
17/12:30pm 14.9 9.7 8.8 67 3.1 W 26 44 14 24 - - 0.0
17/12:00pm 13.1 8.5 8.2 72 2.5 WSW 22 30 12 16 - - 0.0
17/11:30am 14.1 9.9 9.7 75 2.3 W 22 30 12 16 - - 0.0
17/11:00am 12.1 8.2 9.5 84 1.3 WSW 20 30 11 16 - - 0.0
17/10:30am 12.0 8.8 10.1 88 1.0 W 17 22 9 12 - - 0.0
17/10:00am 12.4 9.5 9.8 84 1.3 W 15 30 8 16 - - 0.0
17/09:30am 11.3 8.2 9.0 86 1.2 W 15 20 8 11 - - 0.0
17/09:00am 10.3 7.9 8.7 90 0.8 W 11 15 6 8 - - 0.8
17/08:30am 9.9 8.2 9.9 100 0.0 W 9 13 5 7 - - -
17/08:00am 8.0 5.8 8.0 100 0.0 W 9 13 5 7 - - -
17/07:30am 7.2 5.4 7.2 100 0.0 WNW 6 9 3 5 - - -
17/07:00am 5.6 4.6 5.6 100 0.0 CALM 0 0 0 0 - - -
17/06:30am 5.8 3.5 5.8 100 0.0 NW 7 9 4 5 - - -
17/06:00am 5.0 3.1 5.0 100 0.0 W 4 7 2 4 - - -
17/05:30am 5.6 2.9 5.6 100 0.0 W 9 11 5 6 - - -
17/05:00am 5.7 3.4 5.7 100 0.0 W 7 9 4 5 - - -
17/04:30am 5.5 3.2 5.5 100 0.0 W 7 11 4 6 - - -
17/04:00am 4.6 3.4 4.6 100 0.0 CALM 0 0 0 0 - - -
17/03:30am 3.8 1.1 3.8 100 0.0 WSW 7 9 4 5 - - -
17/03:00am 2.0 0.3 2.0 100 0.0 CALM 0 0 0 0 - - 0.0
17/02:30am 3.7 1.2 3.7 100 0.0 W 6 7 3 4 - - -
17/02:00am 3.6 1.4 3.6 100 0.0 W 4 9 2 5 - - -
17/01:30am 5.6 3.3 5.6 100 0.0 W 7 9 4 5 - - -
17/01:00am 5.8 4.5 5.8 100 0.0 W 2 7 1 4 - - -
17/12:30am 5.7 4.7 5.7 100 0.0 CALM 0 0 0 0 - - -
17/12:00am 6.9 5.0 6.8 99 0.0 S 6 7 3 4 - - -
 
Date/Time
EST
Temp
°C
App
Temp
°C
Dew
Point
Rel
Hum
%
Delta-T
°C
Wind Press
QNH
hPa
Press
MSL
hPa
Rain
since 9 am
mm
Dir
 
Spd
km/h
Gust
km/h
Spd
kts
Gust
kts
16/11:30pm 7.8 5.6 7.7 99 0.0 WSW 9 11 5 6 - - -
16/11:00pm 8.0 5.4 7.9 99 0.0 WSW 11 13 6 7 - - -
16/10:30pm 9.2 6.9 9.1 99 0.0 SW 11 15 6 8 - - -
16/10:00pm 10.4 7.2 10.1 98 0.2 WSW 17 20 9 11 - - -
16/09:30pm 10.5 8.2 10.3 99 0.1 W 13 17 7 9 - - -
16/09:00pm 11.6 8.5 10.2 91 0.7 SW 17 22 9 12 - - -
16/08:30pm 12.3 8.7 10.7 90 0.8 SW 20 28 11 15 - - -
16/08:00pm 12.8 9.5 10.9 88 1.0 SW 19 28 10 15 - - -
16/07:30pm 13.0 10.5 12.4 96 0.3 WSW 17 22 9 12 - - -
16/07:00pm 13.2 10.7 12.4 95 0.4 WSW 17 24 9 13 - - -
16/06:30pm 13.3 10.9 12.5 95 0.4 W 17 22 9 12 - - -
16/06:00pm 13.5 12.4 13.2 98 0.2 W 11 19 6 10 - - -
16/05:30pm 14.1 14.3 14.1 100 0.0 WNW 6 7 3 4 - - -
16/05:00pm 14.5 14.6 14.5 100 0.0 W 7 9 4 5 - - -
16/04:30pm 14.1 13.5 13.5 96 0.3 WSW 9 15 5 8 - - -
16/04:00pm 15.6 13.3 11.8 78 2.1 W 15 20 8 11 - - -
16/03:30pm 16.2 14.4 12.2 77 2.2 WNW 13 20 7 11 - - -
16/02:30pm 16.9 15.1 12.2 74 2.6 WNW 13 20 7 11 - - 0.0
16/02:00pm 16.3 13.9 12.5 78 2.1 WNW 17 24 9 13 - - 0.0
16/01:30pm 16.1 13.3 11.3 73 2.6 WNW 17 24 9 13 - - 0.0
16/01:00pm 16.2 14.2 11.6 74 2.5 NW 13 20 7 11 - - 0.0
16/12:30pm 16.9 16.1 11.6 71 2.9 NW 7 13 4 7 - - 0.0
16/12:00pm 16.0 14.8 11.6 75 2.4 NNE 9 15 5 8 - - 0.0
16/11:30am 15.9 14.4 11.9 77 2.2 NE 11 17 6 9 - - 0.0
16/11:00am 15.1 13.9 11.5 79 1.9 NE 9 13 5 7 - - 0.0
16/10:30am 13.0 11.3 9.8 81 1.7 NNE 9 13 5 7 - - 0.0
16/10:00am 12.3 10.6 9.9 85 1.2 NNE 9 11 5 6 - - 0.0
16/09:30am 11.5 10.0 9.2 86 1.2 NNE 7 13 4 7 - - 0.0
16/09:00am 11.0 9.1 9.1 88 1.0 N 9 15 5 8 - - 0.0
16/08:30am 10.4 8.8 8.7 89 0.8 NNE 7 11 4 6 - - 0.0
16/08:00am 9.9 8.1 8.0 88 0.9 N 7 11 4 6 - - 0.0
16/07:30am 9.6 7.7 7.4 86 1.1 NNE 7 13 4 7 - - 0.0
16/07:00am 10.7 8.4 7.6 81 1.5 NNE 9 19 5 10 - - 0.0
16/06:30am 11.0 8.7 7.5 79 1.7 NNE 9 15 5 8 - - 0.0
16/06:00am 11.4 9.2 7.7 78 1.8 NE 9 15 5 8 - - 0.0
16/05:30am 9.0 6.6 6.8 86 1.0 NE 9 15 5 8 - - 0.0
16/05:00am 9.6 7.2 6.9 83 1.3 ENE 9 13 5 7 - - 0.0
16/04:30am 11.2 9.3 7.5 78 1.8 NE 7 13 4 7 - - 0.0
16/04:00am 11.9 9.6 7.4 74 2.2 NE 9 13 5 7 - - 0.0
16/03:30am 13.2 10.9 7.6 69 2.8 NE 9 17 5 9 - - 0.0
16/03:00am 14.0 11.0 7.8 66 3.1 ENE 13 19 7 10 - - 0.0
16/02:30am 15.1 10.9 7.6 61 3.8 ENE 19 28 10 15 - - 0.0
16/02:00am 15.1 10.9 7.6 61 3.8 ENE 19 28 10 15 - - 0.0
16/01:30am 14.4 11.4 7.7 64 3.3 E 13 17 7 9 - - 0.0
16/01:00am 15.1 11.4 7.9 62 3.6 E 17 22 9 12 - - 0.0
16/12:30am 15.6 11.6 8.1 61 3.8 E 19 26 10 14 - - 0.0
16/12:00am 15.5 11.5 8.3 62 3.7 E 19 24 10 13 - - 0.0
 
Date/Time
EST
Temp
°C
App
Temp
°C
Dew
Point
Rel
Hum
%
Delta-T
°C
Wind Press
QNH
hPa
Press
MSL
hPa
Rain
since 9 am
mm
Dir
 
Spd
km/h
Gust
km/h
Spd
kts
Gust
kts
15/11:30pm 16.3 11.7 8.0 58 4.2 E 22 33 12 18 - - 0.0
15/11:00pm 16.3 11.2 7.8 57 4.3 E 24 32 13 17 - - 0.0
15/10:30pm 16.8 12.5 7.7 55 4.6 E 20 30 11 16 - - 0.0
15/10:00pm 17.0 12.3 7.6 54 4.8 E 22 30 12 16 - - 0.0

Other Formats:

Comma delimited format used in spreadsheet applications
http://www.bom.gov.au/fwo/IDV60801/IDV60801.95837.axf

JavaScript Object Notation format (JSON) in row-major order
http://www.bom.gov.au/fwo/IDV60801/IDV60801.95837.json